sensor_id;sensor_type;location;lat;lon;timestamp;temperature;humidity
17565;DHT22;62994;52.126;5.596;2023-03-23T00:00:48;12.50;99.90
17565;DHT22;62994;52.126;5.596;2023-03-23T00:03:15;12.50;99.90
17565;DHT22;62994;52.126;5.596;2023-03-23T00:05:43;12.50;99.90
17565;DHT22;62994;52.126;5.596;2023-03-23T00:08:23;12.50;99.90
17565;DHT22;62994;52.126;5.596;2023-03-23T00:10:53;12.60;99.90
17565;DHT22;62994;52.126;5.596;2023-03-23T00:13:23;12.50;99.90
17565;DHT22;62994;52.126;5.596;2023-03-23T00:15:57;12.60;99.90
17565;DHT22;62994;52.126;5.596;2023-03-23T00:18:24;12.50;99.90
17565;DHT22;62994;52.126;5.596;2023-03-23T00:20:55;12.60;99.90
17565;DHT22;62994;52.126;5.596;2023-03-23T00:23:27;12.60;99.90
17565;DHT22;62994;52.126;5.596;2023-03-23T00:26:02;12.50;99.90
17565;DHT22;62994;52.126;5.596;2023-03-23T00:28:45;12.60;99.90
17565;DHT22;62994;52.126;5.596;2023-03-23T00:31:17;12.60;99.90
17565;DHT22;62994;52.126;5.596;2023-03-23T00:33:46;12.50;99.90
17565;DHT22;62994;52.126;5.596;2023-03-23T00:36:15;12.50;99.90
17565;DHT22;62994;52.126;5.596;2023-03-23T00:38:45;12.50;99.90
17565;DHT22;62994;52.126;5.596;2023-03-23T00:41:24;12.50;99.90
17565;DHT22;62994;52.126;5.596;2023-03-23T00:43:52;12.50;99.90
17565;DHT22;62994;52.126;5.596;2023-03-23T00:46:34;12.40;99.90
17565;DHT22;62994;52.126;5.596;2023-03-23T00:49:16;12.50;99.90
17565;DHT22;62994;52.126;5.596;2023-03-23T00:51:46;12.50;99.90
17565;DHT22;62994;52.126;5.596;2023-03-23T00:54:24;12.50;99.90
17565;DHT22;62994;52.126;5.596;2023-03-23T00:56:52;12.50;99.90
17565;DHT22;62994;52.126;5.596;2023-03-23T00:59:24;12.50;99.90
17565;DHT22;62994;52.126;5.596;2023-03-23T01:01:56;12.50;99.90
17565;DHT22;62994;52.126;5.596;2023-03-23T01:04:25;12.50;99.90
17565;DHT22;62994;52.126;5.596;2023-03-23T01:07:10;12.50;99.90
17565;DHT22;62994;52.126;5.596;2023-03-23T01:09:40;12.50;99.90
17565;DHT22;62994;52.126;5.596;2023-03-23T01:12:15;12.50;99.90
17565;DHT22;62994;52.126;5.596;2023-03-23T01:14:45;12.50;99.90
17565;DHT22;62994;52.126;5.596;2023-03-23T01:17:15;12.50;99.90
17565;DHT22;62994;52.126;5.596;2023-03-23T01:19:43;12.50;99.90
17565;DHT22;62994;52.126;5.596;2023-03-23T01:22:16;12.40;99.90
17565;DHT22;62994;52.126;5.596;2023-03-23T01:24:54;12.50;99.90
17565;DHT22;62994;52.126;5.596;2023-03-23T01:27:24;12.50;99.90
17565;DHT22;62994;52.126;5.596;2023-03-23T01:29:55;12.50;99.90
17565;DHT22;62994;52.126;5.596;2023-03-23T01:32:28;12.50;99.90
17565;DHT22;62994;52.126;5.596;2023-03-23T01:34:58;12.50;99.90
17565;DHT22;62994;52.126;5.596;2023-03-23T01:37:30;12.50;99.90
17565;DHT22;62994;52.126;5.596;2023-03-23T01:40:03;12.60;99.90
17565;DHT22;62994;52.126;5.596;2023-03-23T01:42:40;12.70;99.90
17565;DHT22;62994;52.126;5.596;2023-03-23T01:45:29;12.70;99.90
17565;DHT22;62994;52.126;5.596;2023-03-23T01:48:11;12.60;99.90
17565;DHT22;62994;52.126;5.596;2023-03-23T01:50:47;12.60;99.90
17565;DHT22;62994;52.126;5.596;2023-03-23T01:53:37;12.60;99.90
17565;DHT22;62994;52.126;5.596;2023-03-23T01:56:06;12.60;99.90
17565;DHT22;62994;52.126;5.596;2023-03-23T01:58:37;12.60;99.90
17565;DHT22;62994;52.126;5.596;2023-03-23T02:01:07;12.60;99.90
17565;DHT22;62994;52.126;5.596;2023-03-23T02:03:46;12.60;99.90
17565;DHT22;62994;52.126;5.596;2023-03-23T02:06:23;12.60;99.90
17565;DHT22;62994;52.126;5.596;2023-03-23T02:09:09;12.60;99.90
17565;DHT22;62994;52.126;5.596;2023-03-23T02:11:53;12.60;99.90
17565;DHT22;62994;52.126;5.596;2023-03-23T02:14:24;12.60;99.90
17565;DHT22;62994;52.126;5.596;2023-03-23T02:16:58;12.60;99.90
17565;DHT22;62994;52.126;5.596;2023-03-23T02:20:10;12.60;99.90
17565;DHT22;62994;52.126;5.596;2023-03-23T02:25:55;12.60;99.90
17565;DHT22;62994;52.126;5.596;2023-03-23T02:28:49;12.60;99.90
17565;DHT22;62994;52.126;5.596;2023-03-23T02:31:42;12.60;99.90
17565;DHT22;62994;52.126;5.596;2023-03-23T02:34:14;12.50;99.90
17565;DHT22;62994;52.126;5.596;2023-03-23T02:36:59;12.50;99.90
17565;DHT22;62994;52.126;5.596;2023-03-23T02:39:34;12.60;99.90
17565;DHT22;62994;52.126;5.596;2023-03-23T02:42:15;12.50;99.90
17565;DHT22;62994;52.126;5.596;2023-03-23T02:44:46;12.60;99.90
17565;DHT22;62994;52.126;5.596;2023-03-23T02:47:24;12.60;99.90
17565;DHT22;62994;52.126;5.596;2023-03-23T02:49:55;12.50;99.90
17565;DHT22;62994;52.126;5.596;2023-03-23T02:52:35;12.60;99.90
17565;DHT22;62994;52.126;5.596;2023-03-23T02:55:10;12.50;99.90
17565;DHT22;62994;52.126;5.596;2023-03-23T02:57:40;12.50;99.90
17565;DHT22;62994;52.126;5.596;2023-03-23T03:00:14;12.50;99.90
17565;DHT22;62994;52.126;5.596;2023-03-23T03:02:45;12.60;99.90
17565;DHT22;62994;52.126;5.596;2023-03-23T03:05:30;12.50;99.90
17565;DHT22;62994;52.126;5.596;2023-03-23T03:08:11;12.60;99.90
17565;DHT22;62994;52.126;5.596;2023-03-23T03:10:46;12.60;99.90
17565;DHT22;62994;52.126;5.596;2023-03-23T03:13:23;12.60;99.90
17565;DHT22;62994;52.126;5.596;2023-03-23T03:16:04;12.60;99.90
17565;DHT22;62994;52.126;5.596;2023-03-23T03:18:48;12.60;99.90
17565;DHT22;62994;52.126;5.596;2023-03-23T03:21:20;12.60;99.90
17565;DHT22;62994;52.126;5.596;2023-03-23T03:23:56;12.60;99.90
17565;DHT22;62994;52.126;5.596;2023-03-23T03:26:39;12.60;99.90
17565;DHT22;62994;52.126;5.596;2023-03-23T03:29:19;12.60;99.90
17565;DHT22;62994;52.126;5.596;2023-03-23T03:31:54;12.60;99.90
17565;DHT22;62994;52.126;5.596;2023-03-23T03:34:26;12.60;99.90
17565;DHT22;62994;52.126;5.596;2023-03-23T03:37:14;12.60;99.90
17565;DHT22;62994;52.126;5.596;2023-03-23T03:39:45;12.60;99.90
17565;DHT22;62994;52.126;5.596;2023-03-23T03:42:14;12.70;99.90
17565;DHT22;62994;52.126;5.596;2023-03-23T03:44:43;12.70;99.90
17565;DHT22;62994;52.126;5.596;2023-03-23T03:47:12;12.70;99.90
17565;DHT22;62994;52.126;5.596;2023-03-23T03:49:43;12.70;99.90
17565;DHT22;62994;52.126;5.596;2023-03-23T03:52:30;12.80;99.90
17565;DHT22;62994;52.126;5.596;2023-03-23T03:55:04;12.90;99.90
17565;DHT22;62994;52.126;5.596;2023-03-23T03:57:38;12.90;99.90
17565;DHT22;62994;52.126;5.596;2023-03-23T04:00:10;12.90;99.90
17565;DHT22;62994;52.126;5.596;2023-03-23T04:02:43;12.90;99.90
17565;DHT22;62994;52.126;5.596;2023-03-23T04:05:18;12.90;99.90
17565;DHT22;62994;52.126;5.596;2023-03-23T04:07:50;12.80;99.90
17565;DHT22;62994;52.126;5.596;2023-03-23T04:10:20;12.80;99.90
17565;DHT22;62994;52.126;5.596;2023-03-23T04:12:49;12.80;99.90
17565;DHT22;62994;52.126;5.596;2023-03-23T04:15:16;12.80;99.90
17565;DHT22;62994;52.126;5.596;2023-03-23T04:17:46;12.80;99.90
17565;DHT22;62994;52.126;5.596;2023-03-23T04:20:26;12.80;99.90
17565;DHT22;62994;52.126;5.596;2023-03-23T04:22:55;12.80;99.90
17565;DHT22;62994;52.126;5.596;2023-03-23T04:25:23;12.80;99.90
17565;DHT22;62994;52.126;5.596;2023-03-23T04:27:54;12.80;99.90
17565;DHT22;62994;52.126;5.596;2023-03-23T04:30:28;12.80;99.90
17565;DHT22;62994;52.126;5.596;2023-03-23T04:33:17;12.80;99.90
17565;DHT22;62994;52.126;5.596;2023-03-23T04:35:48;12.80;99.90
17565;DHT22;62994;52.126;5.596;2023-03-23T04:38:28;12.80;99.90
17565;DHT22;62994;52.126;5.596;2023-03-23T04:41:01;12.80;99.90
17565;DHT22;62994;52.126;5.596;2023-03-23T04:43:36;12.80;99.90
17565;DHT22;62994;52.126;5.596;2023-03-23T04:46:20;12.90;99.90
17565;DHT22;62994;52.126;5.596;2023-03-23T04:48:53;12.90;99.90
17565;DHT22;62994;52.126;5.596;2023-03-23T04:51:23;12.90;99.90
17565;DHT22;62994;52.126;5.596;2023-03-23T04:53:53;12.90;99.90
17565;DHT22;62994;52.126;5.596;2023-03-23T04:56:21;12.90;99.90
17565;DHT22;62994;52.126;5.596;2023-03-23T04:58:50;12.90;99.90
17565;DHT22;62994;52.126;5.596;2023-03-23T05:01:19;12.90;99.90
17565;DHT22;62994;52.126;5.596;2023-03-23T05:03:48;12.90;99.90
17565;DHT22;62994;52.126;5.596;2023-03-23T05:06:22;12.90;99.90
17565;DHT22;62994;52.126;5.596;2023-03-23T05:08:50;12.90;99.90
17565;DHT22;62994;52.126;5.596;2023-03-23T05:11:31;12.80;99.90
17565;DHT22;62994;52.126;5.596;2023-03-23T05:14:06;12.80;99.90
17565;DHT22;62994;52.126;5.596;2023-03-23T05:16:33;12.90;99.90
17565;DHT22;62994;52.126;5.596;2023-03-23T05:19:03;12.90;99.90
17565;DHT22;62994;52.126;5.596;2023-03-23T05:21:33;12.90;99.90
17565;DHT22;62994;52.126;5.596;2023-03-23T05:24:08;12.90;99.90
17565;DHT22;62994;52.126;5.596;2023-03-23T05:26:37;12.90;99.90
17565;DHT22;62994;52.126;5.596;2023-03-23T05:29:06;12.90;99.90
17565;DHT22;62994;52.126;5.596;2023-03-23T05:31:42;12.90;99.90
17565;DHT22;62994;52.126;5.596;2023-03-23T05:34:11;12.80;99.90
17565;DHT22;62994;52.126;5.596;2023-03-23T05:36:42;12.80;99.90
17565;DHT22;62994;52.126;5.596;2023-03-23T05:39:15;12.90;99.90
17565;DHT22;62994;52.126;5.596;2023-03-23T05:41:47;12.80;99.90
17565;DHT22;62994;52.126;5.596;2023-03-23T05:44:17;12.80;99.90
17565;DHT22;62994;52.126;5.596;2023-03-23T05:46:45;12.90;99.90
17565;DHT22;62994;52.126;5.596;2023-03-23T05:49:28;12.90;99.90
17565;DHT22;62994;52.126;5.596;2023-03-23T05:51:56;12.80;99.90
17565;DHT22;62994;52.126;5.596;2023-03-23T05:54:25;12.80;99.90
17565;DHT22;62994;52.126;5.596;2023-03-23T05:56:55;12.80;99.90
17565;DHT22;62994;52.126;5.596;2023-03-23T05:59:27;12.80;99.90
17565;DHT22;62994;52.126;5.596;2023-03-23T06:01:54;12.80;99.90
17565;DHT22;62994;52.126;5.596;2023-03-23T06:04:26;12.80;99.90
17565;DHT22;62994;52.126;5.596;2023-03-23T06:06:58;12.80;99.90
17565;DHT22;62994;52.126;5.596;2023-03-23T06:09:34;12.80;99.90
17565;DHT22;62994;52.126;5.596;2023-03-23T06:12:08;12.80;99.90
17565;DHT22;62994;52.126;5.596;2023-03-23T06:14:39;12.80;99.90
17565;DHT22;62994;52.126;5.596;2023-03-23T06:17:08;12.80;99.90
17565;DHT22;62994;52.126;5.596;2023-03-23T06:19:36;12.70;99.90
17565;DHT22;62994;52.126;5.596;2023-03-23T06:22:03;12.70;99.90
17565;DHT22;62994;52.126;5.596;2023-03-23T06:24:40;12.70;99.90
17565;DHT22;62994;52.126;5.596;2023-03-23T06:27:23;12.70;99.90
17565;DHT22;62994;52.126;5.596;2023-03-23T06:29:52;12.70;99.90
17565;DHT22;62994;52.126;5.596;2023-03-23T06:32:28;12.70;99.90
17565;DHT22;62994;52.126;5.596;2023-03-23T06:35:01;12.70;99.90
17565;DHT22;62994;52.126;5.596;2023-03-23T06:37:29;12.60;99.90
17565;DHT22;62994;52.126;5.596;2023-03-23T06:40:05;12.60;99.90
17565;DHT22;62994;52.126;5.596;2023-03-23T06:42:40;12.60;99.90
17565;DHT22;62994;52.126;5.596;2023-03-23T06:45:13;12.50;99.90
17565;DHT22;62994;52.126;5.596;2023-03-23T06:47:46;12.50;99.90
17565;DHT22;62994;52.126;5.596;2023-03-23T06:50:19;12.50;99.90
17565;DHT22;62994;52.126;5.596;2023-03-23T06:52:50;12.50;99.90
17565;DHT22;62994;52.126;5.596;2023-03-23T06:55:18;12.50;99.90
17565;DHT22;62994;52.126;5.596;2023-03-23T06:58:05;12.50;99.90
17565;DHT22;62994;52.126;5.596;2023-03-23T07:00:34;12.50;99.90
17565;DHT22;62994;52.126;5.596;2023-03-23T07:03:06;12.50;99.90
17565;DHT22;62994;52.126;5.596;2023-03-23T07:05:40;12.50;99.90
17565;DHT22;62994;52.126;5.596;2023-03-23T07:08:14;12.50;99.90
17565;DHT22;62994;52.126;5.596;2023-03-23T07:10:51;12.60;99.90
17565;DHT22;62994;52.126;5.596;2023-03-23T07:13:24;12.60;99.90
17565;DHT22;62994;52.126;5.596;2023-03-23T07:15:52;12.50;99.90
17565;DHT22;62994;52.126;5.596;2023-03-23T07:18:27;12.50;99.90
17565;DHT22;62994;52.126;5.596;2023-03-23T07:20:59;12.50;99.90
17565;DHT22;62994;52.126;5.596;2023-03-23T07:23:35;12.50;99.90
17565;DHT22;62994;52.126;5.596;2023-03-23T07:26:05;12.60;99.90
17565;DHT22;62994;52.126;5.596;2023-03-23T07:28:49;12.50;99.90
17565;DHT22;62994;52.126;5.596;2023-03-23T07:31:19;12.50;99.90
17565;DHT22;62994;52.126;5.596;2023-03-23T07:33:58;12.50;99.90
17565;DHT22;62994;52.126;5.596;2023-03-23T07:36:28;12.50;99.90
17565;DHT22;62994;52.126;5.596;2023-03-23T07:39:01;12.40;99.90
17565;DHT22;62994;52.126;5.596;2023-03-23T07:41:32;12.40;99.90
17565;DHT22;62994;52.126;5.596;2023-03-23T07:44:04;12.50;99.90
17565;DHT22;62994;52.126;5.596;2023-03-23T07:46:45;12.50;99.90
17565;DHT22;62994;52.126;5.596;2023-03-23T07:49:14;12.50;99.90
17565;DHT22;62994;52.126;5.596;2023-03-23T07:51:53;12.50;99.90
17565;DHT22;62994;52.126;5.596;2023-03-23T07:54:24;12.60;99.90
17565;DHT22;62994;52.126;5.596;2023-03-23T07:56:54;12.60;99.90
17565;DHT22;62994;52.126;5.596;2023-03-23T07:59:26;12.60;99.90
17565;DHT22;62994;52.126;5.596;2023-03-23T08:02:01;12.60;99.90
17565;DHT22;62994;52.126;5.596;2023-03-23T08:04:41;12.60;99.90
17565;DHT22;62994;52.126;5.596;2023-03-23T08:07:15;12.60;99.90
17565;DHT22;62994;52.126;5.596;2023-03-23T08:09:53;12.60;99.90
17565;DHT22;62994;52.126;5.596;2023-03-23T08:12:20;12.70;99.90
17565;DHT22;62994;52.126;5.596;2023-03-23T08:14:52;12.60;99.90
17565;DHT22;62994;52.126;5.596;2023-03-23T08:17:24;12.70;99.90
17565;DHT22;62994;52.126;5.596;2023-03-23T08:19:52;12.70;99.90
17565;DHT22;62994;52.126;5.596;2023-03-23T08:22:20;12.70;99.90
17565;DHT22;62994;52.126;5.596;2023-03-23T08:24:49;12.70;99.90
17565;DHT22;62994;52.126;5.596;2023-03-23T08:27:28;12.70;99.90
17565;DHT22;62994;52.126;5.596;2023-03-23T08:29:56;12.70;99.90
17565;DHT22;62994;52.126;5.596;2023-03-23T08:32:27;12.70;99.90
17565;DHT22;62994;52.126;5.596;2023-03-23T08:34:54;12.70;99.90
17565;DHT22;62994;52.126;5.596;2023-03-23T08:37:23;12.70;99.90
17565;DHT22;62994;52.126;5.596;2023-03-23T08:39:51;12.70;99.90
17565;DHT22;62994;52.126;5.596;2023-03-23T08:42:23;12.60;99.90
17565;DHT22;62994;52.126;5.596;2023-03-23T08:44:59;12.60;99.90
17565;DHT22;62994;52.126;5.596;2023-03-23T08:47:27;12.60;99.90
17565;DHT22;62994;52.126;5.596;2023-03-23T08:50:14;12.60;99.90
17565;DHT22;62994;52.126;5.596;2023-03-23T08:52:48;12.60;99.90
17565;DHT22;62994;52.126;5.596;2023-03-23T08:55:20;12.60;99.90
17565;DHT22;62994;52.126;5.596;2023-03-23T08:57:57;12.80;99.90
17565;DHT22;62994;52.126;5.596;2023-03-23T09:00:38;12.90;99.90
17565;DHT22;62994;52.126;5.596;2023-03-23T09:03:08;12.90;99.90
17565;DHT22;62994;52.126;5.596;2023-03-23T09:05:49;12.90;99.90
17565;DHT22;62994;52.126;5.596;2023-03-23T09:08:19;12.90;99.90
17565;DHT22;62994;52.126;5.596;2023-03-23T09:10:47;12.80;99.90
17565;DHT22;62994;52.126;5.596;2023-03-23T09:13:15;12.90;99.90
17565;DHT22;62994;52.126;5.596;2023-03-23T09:15:46;12.90;99.90
17565;DHT22;62994;52.126;5.596;2023-03-23T09:18:18;12.90;99.90
17565;DHT22;62994;52.126;5.596;2023-03-23T09:20:49;13.00;99.90
17565;DHT22;62994;52.126;5.596;2023-03-23T09:23:27;13.00;99.90
17565;DHT22;62994;52.126;5.596;2023-03-23T09:26:01;13.10;99.90
17565;DHT22;62994;52.126;5.596;2023-03-23T09:28:31;13.20;99.90
17565;DHT22;62994;52.126;5.596;2023-03-23T09:31:03;13.20;99.90
17565;DHT22;62994;52.126;5.596;2023-03-23T09:33:32;13.20;99.90
17565;DHT22;62994;52.126;5.596;2023-03-23T09:36:02;13.20;99.90
17565;DHT22;62994;52.126;5.596;2023-03-23T09:38:34;13.30;99.90
17565;DHT22;62994;52.126;5.596;2023-03-23T09:41:19;13.30;99.90
17565;DHT22;62994;52.126;5.596;2023-03-23T09:44:02;13.40;99.90
17565;DHT22;62994;52.126;5.596;2023-03-23T09:46:58;13.50;99.90
17565;DHT22;62994;52.126;5.596;2023-03-23T09:49:41;13.50;99.90
17565;DHT22;62994;52.126;5.596;2023-03-23T09:52:18;13.60;99.90
17565;DHT22;62994;52.126;5.596;2023-03-23T09:54:49;13.70;99.90
17565;DHT22;62994;52.126;5.596;2023-03-23T09:57:26;13.70;99.90
17565;DHT22;62994;52.126;5.596;2023-03-23T10:00:14;13.80;99.90
17565;DHT22;62994;52.126;5.596;2023-03-23T10:02:52;13.90;99.90
17565;DHT22;62994;52.126;5.596;2023-03-23T10:05:35;13.90;99.90
17565;DHT22;62994;52.126;5.596;2023-03-23T10:08:12;14.00;99.90
17565;DHT22;62994;52.126;5.596;2023-03-23T10:11:00;14.00;99.90
17565;DHT22;62994;52.126;5.596;2023-03-23T10:13:53;14.10;99.90
17565;DHT22;62994;52.126;5.596;2023-03-23T10:16:26;14.10;99.90
17565;DHT22;62994;52.126;5.596;2023-03-23T10:19:15;14.20;99.90
17565;DHT22;62994;52.126;5.596;2023-03-23T10:21:59;14.20;99.90
17565;DHT22;62994;52.126;5.596;2023-03-23T10:24:34;14.20;99.90
17565;DHT22;62994;52.126;5.596;2023-03-23T10:27:14;14.30;99.90
17565;DHT22;62994;52.126;5.596;2023-03-23T10:29:48;14.30;99.90
17565;DHT22;62994;52.126;5.596;2023-03-23T10:32:36;14.40;99.90
17565;DHT22;62994;52.126;5.596;2023-03-23T10:35:09;14.50;99.90
17565;DHT22;62994;52.126;5.596;2023-03-23T10:37:41;14.60;99.90
17565;DHT22;62994;52.126;5.596;2023-03-23T10:40:25;14.60;99.90
17565;DHT22;62994;52.126;5.596;2023-03-23T10:42:59;14.70;99.90
17565;DHT22;62994;52.126;5.596;2023-03-23T10:45:28;14.80;99.90
17565;DHT22;62994;52.126;5.596;2023-03-23T10:48:08;14.90;99.90
17565;DHT22;62994;52.126;5.596;2023-03-23T10:50:39;15.00;99.90
17565;DHT22;62994;52.126;5.596;2023-03-23T10:53:18;15.00;99.90
17565;DHT22;62994;52.126;5.596;2023-03-23T10:55:52;15.10;99.90
17565;DHT22;62994;52.126;5.596;2023-03-23T10:58:34;15.20;99.90
17565;DHT22;62994;52.126;5.596;2023-03-23T11:01:11;15.30;99.90
17565;DHT22;62994;52.126;5.596;2023-03-23T11:03:44;15.40;99.90
17565;DHT22;62994;52.126;5.596;2023-03-23T11:06:23;15.50;99.90
17565;DHT22;62994;52.126;5.596;2023-03-23T11:09:02;15.70;99.90
17565;DHT22;62994;52.126;5.596;2023-03-23T11:11:38;15.80;99.90
17565;DHT22;62994;52.126;5.596;2023-03-23T11:14:17;15.80;99.90
17565;DHT22;62994;52.126;5.596;2023-03-23T11:16:52;15.80;99.90
17565;DHT22;62994;52.126;5.596;2023-03-23T11:19:28;15.90;99.90
17565;DHT22;62994;52.126;5.596;2023-03-23T11:22:06;15.90;99.90
17565;DHT22;62994;52.126;5.596;2023-03-23T11:24:40;16.00;99.90
17565;DHT22;62994;52.126;5.596;2023-03-23T11:27:22;16.00;99.90
17565;DHT22;62994;52.126;5.596;2023-03-23T11:29:54;15.90;99.90
17565;DHT22;62994;52.126;5.596;2023-03-23T11:32:24;15.90;99.90
17565;DHT22;62994;52.126;5.596;2023-03-23T11:35:03;15.90;99.90
17565;DHT22;62994;52.126;5.596;2023-03-23T11:37:43;15.90;99.90
17565;DHT22;62994;52.126;5.596;2023-03-23T11:40:20;16.00;99.90
17565;DHT22;62994;52.126;5.596;2023-03-23T11:42:59;16.00;99.90
17565;DHT22;62994;52.126;5.596;2023-03-23T11:45:33;16.10;99.90
17565;DHT22;62994;52.126;5.596;2023-03-23T11:48:18;16.20;99.90
17565;DHT22;62994;52.126;5.596;2023-03-23T11:50:51;16.20;99.90
17565;DHT22;62994;52.126;5.596;2023-03-23T11:53:47;16.20;99.90
17565;DHT22;62994;52.126;5.596;2023-03-23T11:56:23;16.20;99.90
17565;DHT22;62994;52.126;5.596;2023-03-23T11:58:53;16.20;99.90
17565;DHT22;62994;52.126;5.596;2023-03-23T12:01:46;16.20;99.90
17565;DHT22;62994;52.126;5.596;2023-03-23T12:04:39;16.20;99.90
17565;DHT22;62994;52.126;5.596;2023-03-23T12:07:25;16.00;99.90
17565;DHT22;62994;52.126;5.596;2023-03-23T12:10:09;16.00;99.90
17565;DHT22;62994;52.126;5.596;2023-03-23T12:12:44;15.90;99.90
17565;DHT22;62994;52.126;5.596;2023-03-23T12:15:22;15.80;99.90
17565;DHT22;62994;52.126;5.596;2023-03-23T12:18:00;15.70;99.90
17565;DHT22;62994;52.126;5.596;2023-03-23T12:20:37;15.60;99.90
17565;DHT22;62994;52.126;5.596;2023-03-23T12:23:22;15.50;99.90
17565;DHT22;62994;52.126;5.596;2023-03-23T12:32:38;15.60;99.90
17565;DHT22;62994;52.126;5.596;2023-03-23T12:35:25;15.80;99.90
17565;DHT22;62994;52.126;5.596;2023-03-23T12:38:32;15.90;99.90
17565;DHT22;62994;52.126;5.596;2023-03-23T12:41:16;15.90;99.90
17565;DHT22;62994;52.126;5.596;2023-03-23T12:43:52;16.00;99.90
17565;DHT22;62994;52.126;5.596;2023-03-23T12:46:48;16.00;99.90
17565;DHT22;62994;52.126;5.596;2023-03-23T12:49:29;16.10;99.90
17565;DHT22;62994;52.126;5.596;2023-03-23T12:52:09;16.20;99.90
17565;DHT22;62994;52.126;5.596;2023-03-23T12:54:44;16.20;99.90
17565;DHT22;62994;52.126;5.596;2023-03-23T12:57:29;16.30;99.90
17565;DHT22;62994;52.126;5.596;2023-03-23T13:00:06;16.30;99.90
17565;DHT22;62994;52.126;5.596;2023-03-23T13:02:52;16.40;99.90
17565;DHT22;62994;52.126;5.596;2023-03-23T13:05:42;16.50;99.90
17565;DHT22;62994;52.126;5.596;2023-03-23T13:08:16;16.60;99.90
17565;DHT22;62994;52.126;5.596;2023-03-23T13:10:57;16.70;99.90
17565;DHT22;62994;52.126;5.596;2023-03-23T13:13:46;16.80;99.90
17565;DHT22;62994;52.126;5.596;2023-03-23T13:16:28;16.80;99.90
17565;DHT22;62994;52.126;5.596;2023-03-23T13:19:06;16.90;99.90
17565;DHT22;62994;52.126;5.596;2023-03-23T13:21:38;16.90;99.90
17565;DHT22;62994;52.126;5.596;2023-03-23T13:24:13;16.90;99.90
17565;DHT22;62994;52.126;5.596;2023-03-23T13:26:46;16.90;99.90
17565;DHT22;62994;52.126;5.596;2023-03-23T13:29:23;16.90;99.90
17565;DHT22;62994;52.126;5.596;2023-03-23T13:32:05;16.80;99.90
17565;DHT22;62994;52.126;5.596;2023-03-23T13:34:35;16.80;99.90
17565;DHT22;62994;52.126;5.596;2023-03-23T13:37:08;16.80;99.90
17565;DHT22;62994;52.126;5.596;2023-03-23T13:39:49;16.70;99.90
17565;DHT22;62994;52.126;5.596;2023-03-23T13:42:30;16.70;99.90
17565;DHT22;62994;52.126;5.596;2023-03-23T13:45:24;16.70;99.90
17565;DHT22;62994;52.126;5.596;2023-03-23T13:51:25;16.60;99.90
17565;DHT22;62994;52.126;5.596;2023-03-23T13:54:19;16.50;99.90
17565;DHT22;62994;52.126;5.596;2023-03-23T13:56:56;16.40;99.90
17565;DHT22;62994;52.126;5.596;2023-03-23T13:59:34;16.40;99.90
17565;DHT22;62994;52.126;5.596;2023-03-23T14:02:27;16.40;99.90
17565;DHT22;62994;52.126;5.596;2023-03-23T14:07:58;16.40;99.90
17565;DHT22;62994;52.126;5.596;2023-03-23T14:10:50;16.40;99.90
17565;DHT22;62994;52.126;5.596;2023-03-23T14:13:30;16.30;99.90
17565;DHT22;62994;52.126;5.596;2023-03-23T14:16:13;16.10;99.90
17565;DHT22;62994;52.126;5.596;2023-03-23T14:18:56;15.90;99.90
17565;DHT22;62994;52.126;5.596;2023-03-23T14:21:36;15.80;99.90
17565;DHT22;62994;52.126;5.596;2023-03-23T14:24:15;15.80;99.90
17565;DHT22;62994;52.126;5.596;2023-03-23T14:26:43;15.60;99.90
17565;DHT22;62994;52.126;5.596;2023-03-23T14:29:16;15.50;99.90
17565;DHT22;62994;52.126;5.596;2023-03-23T14:31:44;15.50;99.90
17565;DHT22;62994;52.126;5.596;2023-03-23T14:34:18;15.60;99.90
17565;DHT22;62994;52.126;5.596;2023-03-23T14:36:52;15.80;99.90
17565;DHT22;62994;52.126;5.596;2023-03-23T14:39:25;15.90;99.90
17565;DHT22;62994;52.126;5.596;2023-03-23T14:41:54;16.00;99.90
17565;DHT22;62994;52.126;5.596;2023-03-23T14:44:40;16.20;99.90
17565;DHT22;62994;52.126;5.596;2023-03-23T14:47:22;16.30;99.90
17565;DHT22;62994;52.126;5.596;2023-03-23T14:50:00;16.40;99.90
17565;DHT22;62994;52.126;5.596;2023-03-23T14:52:32;16.50;99.90
17565;DHT22;62994;52.126;5.596;2023-03-23T14:55:12;16.70;99.90
17565;DHT22;62994;52.126;5.596;2023-03-23T14:57:43;16.80;99.90
17565;DHT22;62994;52.126;5.596;2023-03-23T15:00:22;16.90;99.90
17565;DHT22;62994;52.126;5.596;2023-03-23T15:05:46;17.00;99.90
17565;DHT22;62994;52.126;5.596;2023-03-23T15:08:23;17.00;99.90
17565;DHT22;62994;52.126;5.596;2023-03-23T15:11:05;17.20;99.90
17565;DHT22;62994;52.126;5.596;2023-03-23T15:13:37;17.20;99.90
17565;DHT22;62994;52.126;5.596;2023-03-23T15:16:12;17.10;99.90
17565;DHT22;62994;52.126;5.596;2023-03-23T15:18:40;17.00;99.90
17565;DHT22;62994;52.126;5.596;2023-03-23T15:21:23;16.90;99.90
17565;DHT22;62994;52.126;5.596;2023-03-23T15:24:01;16.90;99.90
17565;DHT22;62994;52.126;5.596;2023-03-23T15:26:41;16.80;99.90
17565;DHT22;62994;52.126;5.596;2023-03-23T15:29:20;16.70;99.90
17565;DHT22;62994;52.126;5.596;2023-03-23T15:31:57;16.70;99.90
17565;DHT22;62994;52.126;5.596;2023-03-23T15:34:29;16.70;99.90
17565;DHT22;62994;52.126;5.596;2023-03-23T15:37:04;16.60;99.90
17565;DHT22;62994;52.126;5.596;2023-03-23T15:39:41;16.60;99.90
17565;DHT22;62994;52.126;5.596;2023-03-23T15:42:31;16.60;99.90
17565;DHT22;62994;52.126;5.596;2023-03-23T15:47:52;16.40;99.90
17565;DHT22;62994;52.126;5.596;2023-03-23T15:50:32;16.30;99.90
17565;DHT22;62994;52.126;5.596;2023-03-23T15:53:28;16.30;99.90
17565;DHT22;62994;52.126;5.596;2023-03-23T15:56:04;16.20;99.90
17565;DHT22;62994;52.126;5.596;2023-03-23T15:58:32;16.20;99.90
17565;DHT22;62994;52.126;5.596;2023-03-23T16:01:09;16.30;99.90
17565;DHT22;62994;52.126;5.596;2023-03-23T16:03:39;16.30;99.90
17565;DHT22;62994;52.126;5.596;2023-03-23T16:06:13;16.30;99.90
17565;DHT22;62994;52.126;5.596;2023-03-23T16:08:48;16.30;99.90
17565;DHT22;62994;52.126;5.596;2023-03-23T16:11:17;16.30;99.90
17565;DHT22;62994;52.126;5.596;2023-03-23T16:13:47;16.30;99.90
17565;DHT22;62994;52.126;5.596;2023-03-23T16:16:16;16.30;99.90
17565;DHT22;62994;52.126;5.596;2023-03-23T16:18:49;16.30;99.90
17565;DHT22;62994;52.126;5.596;2023-03-23T16:21:25;16.20;99.90
17565;DHT22;62994;52.126;5.596;2023-03-23T16:24:07;16.20;99.90
17565;DHT22;62994;52.126;5.596;2023-03-23T16:26:37;16.20;99.90
17565;DHT22;62994;52.126;5.596;2023-03-23T16:29:14;16.20;99.90
17565;DHT22;62994;52.126;5.596;2023-03-23T16:31:44;16.20;99.90
17565;DHT22;62994;52.126;5.596;2023-03-23T16:34:11;16.20;99.90
17565;DHT22;62994;52.126;5.596;2023-03-23T16:36:45;16.20;99.90
17565;DHT22;62994;52.126;5.596;2023-03-23T16:39:20;16.20;99.90
17565;DHT22;62994;52.126;5.596;2023-03-23T16:41:48;16.20;99.90
17565;DHT22;62994;52.126;5.596;2023-03-23T16:44:18;16.20;99.90